Pocono Summit, Pennsylvania
Current Conditions -  °F | °C
As of 4:42 AM on Monday 24 Nov 2014 (Local Time) from KMPO Reporting Station
Moderate Rain Moderate Rain  
Wind Chill: 54°   Ceiling: 200
Heat Index: 54°   Visibility: 1.5mi
Dew Point: 53°   Wind: 13mph
Humidity: 97%   Direction: 160°SSE
Pressure: 29.64"   Gusts: 29mph
Location:  41.11°N, 75.39°W
Report Text: KMPO 240942Z AUTO 16011G25KT 1 1/2SM RA BR OVC002 12/12 A2964 RMK AO2 PK WND 15027/0925 P0014 T01220117
Loading
Personal Weather Stations






























Interactive Weather Map New forecast layout! Learn more

10-Day Weather Forecast

Advertisements
Track Severe Weather on mobile